KRRL/RRL METAR and TAF weather

Enter ICAO airport designator
Station Type Date Time Source
KRRL METAR 2021/05/14 13:55 UTC NOAA

KRRL 141355Z AUTO 00000KT 10SM CLR 14/02 A3028 RMK AO2 T01360023 TSNO


Station Type Date Time Source
KRRL Decoded METAR 2021/05/14 13:55 UTC NOAA

Merrill, Merrill Municipal Airport, WI, United States (KRRL) 45-11N 089-42W
May 14, 2021 - 09:55 AM EDT / 2021.05.14 1355 UTC
Wind: Calm:0
Visibility: 10 mile(s):0
Sky conditions: clear
Temperature: 56.5 F (13.6 C)
Dew Point: 36.1 F (2.3 C)
Relative Humidity: 46%
Pressure (altimeter): 30.28 in. Hg (1025 hPa)
ob: KRRL 141355Z AUTO 00000KT 10SM CLR 14/02 A3028 RMK AO2 T01360023 TSNO
cycle: 14

Station Type Date Time Source
KRRL TAF UTC NOAA

Error!

Example: see airport list